Sherman, Nebraska
Current Conditions -  °F | °C
As of 10:55 AM on Wednesday 26 Nov 2014 (Local Time) from KHDE Reporting Station
Broken Clouds Broken Clouds  
Wind Chill: 20°   Ceiling: 2400
Heat Index: 33°   Visibility: 10mi
Dew Point: 20°   Wind: 21mph
Humidity: 61%   Direction: 350°N
Pressure: 30.22"   Gusts: 33mph
Location:  40.3942°N, 99.1223°W
Report Text: KHDE 261655Z AUTO 35018G29KT 10SM BKN024 00/M06 A3022 RMK AO2 T00031065
Loading
Personal Weather Stations






























Interactive Weather Map New forecast layout! Learn more

10-Day Weather Forecast

Advertisements
Track Severe Weather on mobile